sensor_id;sensor_type;location;lat;lon;timestamp;P1;durP1;ratioP1;P2;durP2;ratioP2
67554;SDS011;54385;53.516;49.456;2022-09-09T00:01:45;8.57;;;4.40;;
67554;SDS011;54385;53.516;49.456;2022-09-09T00:12:04;6.20;;;3.65;;
67554;SDS011;54385;53.516;49.456;2022-09-09T00:14:42;4.05;;;2.42;;
67554;SDS011;54385;53.516;49.456;2022-09-09T00:17:31;3.13;;;1.92;;
67554;SDS011;54385;53.516;49.456;2022-09-09T00:22:51;2.60;;;1.70;;
67554;SDS011;54385;53.516;49.456;2022-09-09T00:25:29;3.80;;;2.20;;
67554;SDS011;54385;53.516;49.456;2022-09-09T00:28:13;3.03;;;2.10;;
67554;SDS011;54385;53.516;49.456;2022-09-09T00:30:48;1.75;;;1.60;;
67554;SDS011;54385;53.516;49.456;2022-09-09T00:33:16;3.03;;;1.52;;
67554;SDS011;54385;53.516;49.456;2022-09-09T00:35:48;3.47;;;1.38;;
67554;SDS011;54385;53.516;49.456;2022-09-09T00:41:14;2.33;;;1.60;;
67554;SDS011;54385;53.516;49.456;2022-09-09T00:43:49;2.92;;;1.50;;
67554;SDS011;54385;53.516;49.456;2022-09-09T00:57:41;6.78;;;5.28;;
67554;SDS011;54385;53.516;49.456;2022-09-09T01:02:58;7.25;;;4.03;;
67554;SDS011;54385;53.516;49.456;2022-09-09T01:05:59;4.68;;;3.33;;
67554;SDS011;54385;53.516;49.456;2022-09-09T01:11:20;3.80;;;2.67;;
67554;SDS011;54385;53.516;49.456;2022-09-09T01:13:49;6.85;;;4.45;;
67554;SDS011;54385;53.516;49.456;2022-09-09T01:16:26;7.82;;;4.75;;
67554;SDS011;54385;53.516;49.456;2022-09-09T01:18:55;7.57;;;4.30;;
67554;SDS011;54385;53.516;49.456;2022-09-09T01:21:39;7.90;;;4.15;;
67554;SDS011;54385;53.516;49.456;2022-09-09T01:27:02;8.68;;;3.88;;
67554;SDS011;54385;53.516;49.456;2022-09-09T01:29:31;3.90;;;3.10;;
67554;SDS011;54385;53.516;49.456;2022-09-09T01:31:59;4.10;;;2.92;;
67554;SDS011;54385;53.516;49.456;2022-09-09T01:34:28;4.13;;;3.13;;
67554;SDS011;54385;53.516;49.456;2022-09-09T01:37:02;7.53;;;3.97;;
67554;SDS011;54385;53.516;49.456;2022-09-09T01:39:34;6.95;;;4.40;;
67554;SDS011;54385;53.516;49.456;2022-09-09T01:42:02;11.23;;;4.78;;
67554;SDS011;54385;53.516;49.456;2022-09-09T01:44:30;9.00;;;5.47;;
67554;SDS011;54385;53.516;49.456;2022-09-09T01:46:57;10.20;;;5.35;;
67554;SDS011;54385;53.516;49.456;2022-09-09T01:51:51;6.57;;;4.03;;
67554;SDS011;54385;53.516;49.456;2022-09-09T01:54:21;9.43;;;6.13;;
67554;SDS011;54385;53.516;49.456;2022-09-09T02:02:23;11.95;;;5.95;;
67554;SDS011;54385;53.516;49.456;2022-09-09T02:04:58;7.70;;;4.60;;
67554;SDS011;54385;53.516;49.456;2022-09-09T02:07:48;6.82;;;4.22;;
67554;SDS011;54385;53.516;49.456;2022-09-09T02:10:23;7.55;;;4.30;;
67554;SDS011;54385;53.516;49.456;2022-09-09T02:13:01;10.60;;;4.43;;
67554;SDS011;54385;53.516;49.456;2022-09-09T02:15:56;9.18;;;5.20;;
67554;SDS011;54385;53.516;49.456;2022-09-09T02:18:26;7.00;;;4.22;;
67554;SDS011;54385;53.516;49.456;2022-09-09T02:20:56;5.00;;;3.33;;
67554;SDS011;54385;53.516;49.456;2022-09-09T02:23:24;5.22;;;3.05;;
67554;SDS011;54385;53.516;49.456;2022-09-09T02:25:52;4.05;;;2.70;;
67554;SDS011;54385;53.516;49.456;2022-09-09T02:28:21;5.15;;;2.97;;
67554;SDS011;54385;53.516;49.456;2022-09-09T02:30:51;5.03;;;2.97;;
67554;SDS011;54385;53.516;49.456;2022-09-09T02:33:24;4.43;;;2.80;;
67554;SDS011;54385;53.516;49.456;2022-09-09T02:35:54;3.90;;;2.67;;
67554;SDS011;54385;53.516;49.456;2022-09-09T02:38:28;7.38;;;3.38;;
67554;SDS011;54385;53.516;49.456;2022-09-09T02:40:58;10.77;;;4.22;;
67554;SDS011;54385;53.516;49.456;2022-09-09T02:43:25;6.68;;;4.07;;
67554;SDS011;54385;53.516;49.456;2022-09-09T02:45:53;11.00;;;5.03;;
67554;SDS011;54385;53.516;49.456;2022-09-09T02:48:29;7.13;;;4.22;;
67554;SDS011;54385;53.516;49.456;2022-09-09T02:51:08;6.10;;;4.65;;
67554;SDS011;54385;53.516;49.456;2022-09-09T02:56:15;3.70;;;2.35;;
67554;SDS011;54385;53.516;49.456;2022-09-09T02:58:43;4.07;;;2.72;;
67554;SDS011;54385;53.516;49.456;2022-09-09T03:01:09;4.68;;;2.78;;
67554;SDS011;54385;53.516;49.456;2022-09-09T03:03:36;3.67;;;2.60;;
67554;SDS011;54385;53.516;49.456;2022-09-09T03:06:03;4.70;;;2.72;;
67554;SDS011;54385;53.516;49.456;2022-09-09T03:08:31;4.88;;;3.20;;
67554;SDS011;54385;53.516;49.456;2022-09-09T03:11:00;8.50;;;4.63;;
67554;SDS011;54385;53.516;49.456;2022-09-09T03:13:29;8.07;;;4.85;;
67554;SDS011;54385;53.516;49.456;2022-09-09T03:15:59;7.78;;;5.20;;
67554;SDS011;54385;53.516;49.456;2022-09-09T03:20:52;8.68;;;5.10;;
67554;SDS011;54385;53.516;49.456;2022-09-09T03:23:19;9.57;;;5.35;;
67554;SDS011;54385;53.516;49.456;2022-09-09T03:25:53;9.50;;;4.05;;
67554;SDS011;54385;53.516;49.456;2022-09-09T03:28:22;7.38;;;4.60;;
67554;SDS011;54385;53.516;49.456;2022-09-09T03:31:02;5.45;;;3.35;;
67554;SDS011;54385;53.516;49.456;2022-09-09T03:33:36;6.10;;;4.30;;
67554;SDS011;54385;53.516;49.456;2022-09-09T03:36:13;4.88;;;3.42;;
67554;SDS011;54385;53.516;49.456;2022-09-09T03:38:52;5.85;;;3.75;;
67554;SDS011;54385;53.516;49.456;2022-09-09T03:41:28;7.22;;;3.65;;
67554;SDS011;54385;53.516;49.456;2022-09-09T03:43:55;5.75;;;4.05;;
67554;SDS011;54385;53.516;49.456;2022-09-09T03:46:25;8.23;;;4.70;;
67554;SDS011;54385;53.516;49.456;2022-09-09T03:48:52;8.50;;;4.45;;
67554;SDS011;54385;53.516;49.456;2022-09-09T03:51:23;7.45;;;4.38;;
67554;SDS011;54385;53.516;49.456;2022-09-09T03:53:50;6.75;;;4.80;;
67554;SDS011;54385;53.516;49.456;2022-09-09T03:56:16;5.60;;;3.75;;
67554;SDS011;54385;53.516;49.456;2022-09-09T03:58:42;6.07;;;3.50;;
67554;SDS011;54385;53.516;49.456;2022-09-09T04:03:39;5.55;;;3.63;;
67554;SDS011;54385;53.516;49.456;2022-09-09T04:06:06;6.72;;;3.83;;
67554;SDS011;54385;53.516;49.456;2022-09-09T04:08:35;6.63;;;3.55;;
67554;SDS011;54385;53.516;49.456;2022-09-09T04:11:02;8.55;;;5.55;;
67554;SDS011;54385;53.516;49.456;2022-09-09T04:13:30;7.70;;;4.00;;
67554;SDS011;54385;53.516;49.456;2022-09-09T04:18:24;7.60;;;3.65;;
67554;SDS011;54385;53.516;49.456;2022-09-09T04:20:52;4.78;;;3.15;;
67554;SDS011;54385;53.516;49.456;2022-09-09T04:23:19;5.32;;;3.25;;
67554;SDS011;54385;53.516;49.456;2022-09-09T04:25:46;9.43;;;3.40;;
67554;SDS011;54385;53.516;49.456;2022-09-09T04:28:14;7.32;;;3.50;;
67554;SDS011;54385;53.516;49.456;2022-09-09T04:30:41;7.05;;;3.42;;
67554;SDS011;54385;53.516;49.456;2022-09-09T04:33:09;6.13;;;3.38;;
67554;SDS011;54385;53.516;49.456;2022-09-09T04:35:37;7.88;;;3.40;;
67554;SDS011;54385;53.516;49.456;2022-09-09T04:38:04;3.80;;;2.55;;
67554;SDS011;54385;53.516;49.456;2022-09-09T04:40:35;5.82;;;3.25;;
67554;SDS011;54385;53.516;49.456;2022-09-09T04:43:02;5.70;;;3.38;;
67554;SDS011;54385;53.516;49.456;2022-09-09T04:45:31;6.75;;;3.15;;
67554;SDS011;54385;53.516;49.456;2022-09-09T04:48:02;5.35;;;3.20;;
67554;SDS011;54385;53.516;49.456;2022-09-09T04:50:29;7.13;;;3.42;;
67554;SDS011;54385;53.516;49.456;2022-09-09T04:52:56;4.43;;;2.80;;
67554;SDS011;54385;53.516;49.456;2022-09-09T04:55:28;5.15;;;3.15;;
67554;SDS011;54385;53.516;49.456;2022-09-09T04:57:57;4.47;;;2.55;;
67554;SDS011;54385;53.516;49.456;2022-09-09T05:00:30;4.25;;;2.67;;
67554;SDS011;54385;53.516;49.456;2022-09-09T05:02:56;4.45;;;2.28;;
67554;SDS011;54385;53.516;49.456;2022-09-09T05:05:23;2.00;;;1.60;;
67554;SDS011;54385;53.516;49.456;2022-09-09T05:07:53;3.33;;;2.15;;
67554;SDS011;54385;53.516;49.456;2022-09-09T05:10:30;4.43;;;2.05;;
67554;SDS011;54385;53.516;49.456;2022-09-09T05:13:12;3.78;;;2.58;;
67554;SDS011;54385;53.516;49.456;2022-09-09T05:15:42;5.63;;;2.20;;
67554;SDS011;54385;53.516;49.456;2022-09-09T05:18:17;3.53;;;2.90;;
67554;SDS011;54385;53.516;49.456;2022-09-09T05:21:22;3.80;;;2.90;;
67554;SDS011;54385;53.516;49.456;2022-09-09T05:23:56;3.58;;;2.55;;
67554;SDS011;54385;53.516;49.456;2022-09-09T05:26:37;4.63;;;2.38;;
67554;SDS011;54385;53.516;49.456;2022-09-09T05:29:04;2.85;;;2.55;;
67554;SDS011;54385;53.516;49.456;2022-09-09T05:31:31;2.45;;;1.83;;
67554;SDS011;54385;53.516;49.456;2022-09-09T05:33:58;3.03;;;2.00;;
67554;SDS011;54385;53.516;49.456;2022-09-09T05:36:25;3.08;;;2.25;;
67554;SDS011;54385;53.516;49.456;2022-09-09T05:38:53;3.30;;;1.75;;
67554;SDS011;54385;53.516;49.456;2022-09-09T05:41:20;7.18;;;4.93;;
67554;SDS011;54385;53.516;49.456;2022-09-09T05:43:48;3.40;;;1.90;;
67554;SDS011;54385;53.516;49.456;2022-09-09T05:46:19;3.13;;;1.98;;
67554;SDS011;54385;53.516;49.456;2022-09-09T05:48:47;3.45;;;1.92;;
67554;SDS011;54385;53.516;49.456;2022-09-09T05:51:19;7.40;;;2.30;;
67554;SDS011;54385;53.516;49.456;2022-09-09T05:53:50;4.18;;;2.85;;
67554;SDS011;54385;53.516;49.456;2022-09-09T05:56:21;3.72;;;2.20;;
67554;SDS011;54385;53.516;49.456;2022-09-09T05:58:50;3.38;;;2.08;;
67554;SDS011;54385;53.516;49.456;2022-09-09T06:01:29;3.55;;;2.15;;
67554;SDS011;54385;53.516;49.456;2022-09-09T06:06:25;3.58;;;2.35;;
67554;SDS011;54385;53.516;49.456;2022-09-09T06:08:57;3.17;;;2.22;;
67554;SDS011;54385;53.516;49.456;2022-09-09T06:11:26;4.60;;;1.92;;
67554;SDS011;54385;53.516;49.456;2022-09-09T06:14:03;6.57;;;2.53;;
67554;SDS011;54385;53.516;49.456;2022-09-09T06:16:30;3.35;;;1.98;;
67554;SDS011;54385;53.516;49.456;2022-09-09T06:19:04;3.25;;;1.88;;
67554;SDS011;54385;53.516;49.456;2022-09-09T06:21:32;4.07;;;2.08;;
67554;SDS011;54385;53.516;49.456;2022-09-09T06:24:02;1.85;;;1.25;;
67554;SDS011;54385;53.516;49.456;2022-09-09T06:26:30;9.48;;;3.13;;
67554;SDS011;54385;53.516;49.456;2022-09-09T06:28:58;1.98;;;1.02;;
67554;SDS011;54385;53.516;49.456;2022-09-09T06:31:26;2.40;;;1.10;;
67554;SDS011;54385;53.516;49.456;2022-09-09T06:33:56;1.45;;;1.10;;
67554;SDS011;54385;53.516;49.456;2022-09-09T06:36:25;1.58;;;1.25;;
67554;SDS011;54385;53.516;49.456;2022-09-09T06:38:57;3.00;;;1.23;;
67554;SDS011;54385;53.516;49.456;2022-09-09T06:41:25;1.30;;;1.10;;
67554;SDS011;54385;53.516;49.456;2022-09-09T06:43:54;2.25;;;1.17;;
67554;SDS011;54385;53.516;49.456;2022-09-09T06:46:22;3.00;;;1.30;;
67554;SDS011;54385;53.516;49.456;2022-09-09T06:48:57;2.00;;;0.93;;
67554;SDS011;54385;53.516;49.456;2022-09-09T06:51:26;1.65;;;1.40;;
67554;SDS011;54385;53.516;49.456;2022-09-09T06:53:55;3.67;;;1.33;;
67554;SDS011;54385;53.516;49.456;2022-09-09T06:58:57;2.72;;;1.27;;
67554;SDS011;54385;53.516;49.456;2022-09-09T07:01:27;3.33;;;1.20;;
67554;SDS011;54385;53.516;49.456;2022-09-09T07:03:56;2.60;;;1.08;;
67554;SDS011;54385;53.516;49.456;2022-09-09T07:06:28;1.30;;;0.90;;
67554;SDS011;54385;53.516;49.456;2022-09-09T07:08:57;1.55;;;1.13;;
67554;SDS011;54385;53.516;49.456;2022-09-09T07:11:26;2.13;;;1.00;;
67554;SDS011;54385;53.516;49.456;2022-09-09T07:13:54;3.22;;;0.90;;
67554;SDS011;54385;53.516;49.456;2022-09-09T07:16:23;7.32;;;1.38;;
67554;SDS011;54385;53.516;49.456;2022-09-09T07:18:50;3.05;;;1.10;;
67554;SDS011;54385;53.516;49.456;2022-09-09T07:21:21;2.67;;;1.10;;
67554;SDS011;54385;53.516;49.456;2022-09-09T07:23:47;2.45;;;1.05;;
67554;SDS011;54385;53.516;49.456;2022-09-09T07:26:18;4.22;;;1.45;;
67554;SDS011;54385;53.516;49.456;2022-09-09T07:28:46;5.07;;;1.10;;
67554;SDS011;54385;53.516;49.456;2022-09-09T07:31:17;2.25;;;0.90;;
67554;SDS011;54385;53.516;49.456;2022-09-09T07:33:47;3.90;;;1.17;;
67554;SDS011;54385;53.516;49.456;2022-09-09T07:36:15;2.22;;;0.80;;
67554;SDS011;54385;53.516;49.456;2022-09-09T07:38:47;2.05;;;0.88;;
67554;SDS011;54385;53.516;49.456;2022-09-09T07:41:22;0.82;;;0.60;;
67554;SDS011;54385;53.516;49.456;2022-09-09T07:43:51;1.70;;;0.90;;
67554;SDS011;54385;53.516;49.456;2022-09-09T07:46:20;1.42;;;0.80;;
67554;SDS011;54385;53.516;49.456;2022-09-09T07:48:52;3.63;;;2.15;;
67554;SDS011;54385;53.516;49.456;2022-09-09T07:51:23;1.30;;;1.00;;
67554;SDS011;54385;53.516;49.456;2022-09-09T07:53:56;2.38;;;1.08;;
67554;SDS011;54385;53.516;49.456;2022-09-09T07:56:25;3.17;;;1.52;;
67554;SDS011;54385;53.516;49.456;2022-09-09T07:58:54;3.15;;;1.98;;
67554;SDS011;54385;53.516;49.456;2022-09-09T08:01:26;2.63;;;1.40;;
67554;SDS011;54385;53.516;49.456;2022-09-09T08:04:00;1.45;;;0.90;;
67554;SDS011;54385;53.516;49.456;2022-09-09T08:06:29;1.45;;;0.93;;
67554;SDS011;54385;53.516;49.456;2022-09-09T08:08:59;1.17;;;0.80;;
67554;SDS011;54385;53.516;49.456;2022-09-09T08:11:29;2.75;;;1.02;;
67554;SDS011;54385;53.516;49.456;2022-09-09T08:14:04;1.52;;;0.90;;
67554;SDS011;54385;53.516;49.456;2022-09-09T08:16:54;2.10;;;0.90;;
67554;SDS011;54385;53.516;49.456;2022-09-09T08:19:23;1.30;;;1.00;;
67554;SDS011;54385;53.516;49.456;2022-09-09T08:21:56;3.72;;;1.20;;
67554;SDS011;54385;53.516;49.456;2022-09-09T08:24:35;2.75;;;0.95;;
67554;SDS011;54385;53.516;49.456;2022-09-09T08:27:05;1.13;;;0.73;;
67554;SDS011;54385;53.516;49.456;2022-09-09T08:29:34;2.13;;;0.60;;
67554;SDS011;54385;53.516;49.456;2022-09-09T08:32:16;1.80;;;0.50;;
67554;SDS011;54385;53.516;49.456;2022-09-09T08:35:02;2.55;;;0.93;;
67554;SDS011;54385;53.516;49.456;2022-09-09T08:37:56;2.40;;;0.57;;
67554;SDS011;54385;53.516;49.456;2022-09-09T08:44:31;0.70;;;0.65;;
67554;SDS011;54385;53.516;49.456;2022-09-09T08:53:30;1.02;;;0.55;;
67554;SDS011;54385;53.516;49.456;2022-09-09T08:56:12;2.33;;;0.68;;
67554;SDS011;54385;53.516;49.456;2022-09-09T08:59:23;2.30;;;0.65;;
67554;SDS011;54385;53.516;49.456;2022-09-09T09:05:10;0.60;;;0.40;;
67554;SDS011;54385;53.516;49.456;2022-09-09T09:13:24;2.95;;;0.77;;
67554;SDS011;54385;53.516;49.456;2022-09-09T09:19:15;1.05;;;0.52;;
67554;SDS011;54385;53.516;49.456;2022-09-09T09:41:52;2.05;;;0.70;;
67554;SDS011;54385;53.516;49.456;2022-09-09T09:44:42;6.40;;;1.63;;
67554;SDS011;54385;53.516;49.456;2022-09-09T09:47:20;1.67;;;0.68;;
67554;SDS011;54385;53.516;49.456;2022-09-09T09:50:19;2.97;;;0.95;;
67554;SDS011;54385;53.516;49.456;2022-09-09T09:52:59;3.20;;;0.90;;
67554;SDS011;54385;53.516;49.456;2022-09-09T09:55:31;1.20;;;0.50;;
67554;SDS011;54385;53.516;49.456;2022-09-09T09:58:23;1.02;;;0.45;;
67554;SDS011;54385;53.516;49.456;2022-09-09T10:01:00;1.63;;;0.52;;
67554;SDS011;54385;53.516;49.456;2022-09-09T10:03:31;2.78;;;0.65;;
67554;SDS011;54385;53.516;49.456;2022-09-09T10:06:33;3.28;;;0.63;;
67554;SDS011;54385;53.516;49.456;2022-09-09T10:12:13;2.42;;;0.98;;
67554;SDS011;54385;53.516;49.456;2022-09-09T10:24:17;3.05;;;2.45;;
67554;SDS011;54385;53.516;49.456;2022-09-09T10:27:23;0.85;;;0.65;;
67554;SDS011;54385;53.516;49.456;2022-09-09T10:32:37;1.73;;;0.50;;
67554;SDS011;54385;53.516;49.456;2022-09-09T10:35:11;3.15;;;0.60;;
67554;SDS011;54385;53.516;49.456;2022-09-09T10:55:20;1.25;;;0.60;;
67554;SDS011;54385;53.516;49.456;2022-09-09T10:58:10;0.68;;;0.45;;
67554;SDS011;54385;53.516;49.456;2022-09-09T11:00:44;1.40;;;0.70;;
67554;SDS011;54385;53.516;49.456;2022-09-09T11:06:06;1.27;;;0.80;;
67554;SDS011;54385;53.516;49.456;2022-09-09T11:08:39;0.60;;;0.50;;
67554;SDS011;54385;53.516;49.456;2022-09-09T11:11:09;6.70;;;0.70;;
67554;SDS011;54385;53.516;49.456;2022-09-09T11:19:01;1.83;;;0.77;;
67554;SDS011;54385;53.516;49.456;2022-09-09T11:21:46;1.00;;;0.55;;
67554;SDS011;54385;53.516;49.456;2022-09-09T11:27:09;2.55;;;0.80;;
67554;SDS011;54385;53.516;49.456;2022-09-09T11:30:11;5.63;;;1.15;;
67554;SDS011;54385;53.516;49.456;2022-09-09T11:38:19;1.65;;;0.40;;
67554;SDS011;54385;53.516;49.456;2022-09-09T11:41:05;2.42;;;0.63;;
67554;SDS011;54385;53.516;49.456;2022-09-09T11:43:43;3.38;;;0.82;;
67554;SDS011;54385;53.516;49.456;2022-09-09T11:46:19;0.85;;;0.40;;
67554;SDS011;54385;53.516;49.456;2022-09-09T11:48:58;4.18;;;0.60;;
67554;SDS011;54385;53.516;49.456;2022-09-09T11:51:30;3.22;;;0.98;;
67554;SDS011;54385;53.516;49.456;2022-09-09T11:56:32;6.90;;;1.65;;
67554;SDS011;54385;53.516;49.456;2022-09-09T11:59:24;2.00;;;0.55;;
67554;SDS011;54385;53.516;49.456;2022-09-09T12:02:30;3.53;;;0.70;;
67554;SDS011;54385;53.516;49.456;2022-09-09T12:07:45;2.70;;;1.30;;
67554;SDS011;54385;53.516;49.456;2022-09-09T12:10:31;2.85;;;0.80;;
67554;SDS011;54385;53.516;49.456;2022-09-09T12:15:49;2.05;;;0.70;;
67554;SDS011;54385;53.516;49.456;2022-09-09T12:21:07;2.95;;;0.60;;
67554;SDS011;54385;53.516;49.456;2022-09-09T12:23:43;0.93;;;0.77;;
67554;SDS011;54385;53.516;49.456;2022-09-09T12:26:19;1.38;;;0.85;;
67554;SDS011;54385;53.516;49.456;2022-09-09T12:28:53;2.47;;;0.70;;
67554;SDS011;54385;53.516;49.456;2022-09-09T12:31:34;2.00;;;0.65;;
67554;SDS011;54385;53.516;49.456;2022-09-09T12:34:41;0.80;;;0.70;;
67554;SDS011;54385;53.516;49.456;2022-09-09T12:40:25;4.00;;;0.70;;
67554;SDS011;54385;53.516;49.456;2022-09-09T12:42:56;2.05;;;0.60;;
67554;SDS011;54385;53.516;49.456;2022-09-09T12:46:01;2.92;;;1.30;;
67554;SDS011;54385;53.516;49.456;2022-09-09T12:48:39;3.72;;;0.85;;
67554;SDS011;54385;53.516;49.456;2022-09-09T12:51:51;1.55;;;1.00;;
67554;SDS011;54385;53.516;49.456;2022-09-09T12:54:03;2.38;;;1.00;;
67554;SDS011;54385;53.516;49.456;2022-09-09T12:56:31;4.70;;;1.00;;
67554;SDS011;54385;53.516;49.456;2022-09-09T12:58:58;2.22;;;1.13;;
67554;SDS011;54385;53.516;49.456;2022-09-09T13:01:27;2.90;;;1.00;;
67554;SDS011;54385;53.516;49.456;2022-09-09T13:04:15;5.88;;;1.35;;
67554;SDS011;54385;53.516;49.456;2022-09-09T13:06:50;0.93;;;0.60;;
67554;SDS011;54385;53.516;49.456;2022-09-09T13:09:24;3.35;;;0.98;;
67554;SDS011;54385;53.516;49.456;2022-09-09T13:11:52;1.75;;;1.17;;
67554;SDS011;54385;53.516;49.456;2022-09-09T13:14:28;2.35;;;1.10;;
67554;SDS011;54385;53.516;49.456;2022-09-09T13:16:59;2.20;;;0.98;;
67554;SDS011;54385;53.516;49.456;2022-09-09T13:19:33;2.85;;;0.95;;
67554;SDS011;54385;53.516;49.456;2022-09-09T13:22:14;1.63;;;0.80;;
67554;SDS011;54385;53.516;49.456;2022-09-09T13:25:02;2.15;;;0.95;;
67554;SDS011;54385;53.516;49.456;2022-09-09T13:27:59;3.55;;;1.05;;
67554;SDS011;54385;53.516;49.456;2022-09-09T13:33:20;0.93;;;0.50;;
67554;SDS011;54385;53.516;49.456;2022-09-09T13:38:23;0.70;;;0.50;;
67554;SDS011;54385;53.516;49.456;2022-09-09T13:43:31;1.45;;;0.80;;
67554;SDS011;54385;53.516;49.456;2022-09-09T13:46:02;1.83;;;1.25;;
67554;SDS011;54385;53.516;49.456;2022-09-09T13:51:35;0.77;;;0.50;;
67554;SDS011;54385;53.516;49.456;2022-09-09T13:54:04;0.88;;;0.60;;
67554;SDS011;54385;53.516;49.456;2022-09-09T13:56:35;1.50;;;0.70;;
67554;SDS011;54385;53.516;49.456;2022-09-09T13:59:03;0.95;;;0.65;;
67554;SDS011;54385;53.516;49.456;2022-09-09T14:01:31;3.60;;;0.85;;
67554;SDS011;54385;53.516;49.456;2022-09-09T14:04:00;2.28;;;0.93;;
67554;SDS011;54385;53.516;49.456;2022-09-09T14:06:27;3.35;;;1.00;;
67554;SDS011;54385;53.516;49.456;2022-09-09T14:08:54;2.33;;;0.90;;
67554;SDS011;54385;53.516;49.456;2022-09-09T14:13:48;4.50;;;1.50;;
67554;SDS011;54385;53.516;49.456;2022-09-09T14:16:17;3.15;;;1.60;;
67554;SDS011;54385;53.516;49.456;2022-09-09T14:18:44;2.90;;;1.30;;
67554;SDS011;54385;53.516;49.456;2022-09-09T14:21:11;1.70;;;1.00;;
67554;SDS011;54385;53.516;49.456;2022-09-09T14:23:38;1.83;;;1.15;;
67554;SDS011;54385;53.516;49.456;2022-09-09T14:26:05;2.90;;;1.20;;
67554;SDS011;54385;53.516;49.456;2022-09-09T14:28:32;1.95;;;1.00;;
67554;SDS011;54385;53.516;49.456;2022-09-09T14:31:04;1.48;;;0.82;;
67554;SDS011;54385;53.516;49.456;2022-09-09T14:33:31;2.15;;;1.10;;
67554;SDS011;54385;53.516;49.456;2022-09-09T14:35:58;1.65;;;1.00;;
67554;SDS011;54385;53.516;49.456;2022-09-09T14:38:28;2.00;;;0.77;;
67554;SDS011;54385;53.516;49.456;2022-09-09T14:40:56;1.00;;;0.80;;
67554;SDS011;54385;53.516;49.456;2022-09-09T14:43:24;1.17;;;0.82;;
67554;SDS011;54385;53.516;49.456;2022-09-09T14:45:51;18.48;;;1.27;;
67554;SDS011;54385;53.516;49.456;2022-09-09T14:48:18;2.72;;;1.10;;
67554;SDS011;54385;53.516;49.456;2022-09-09T14:50:44;1.90;;;1.02;;
67554;SDS011;54385;53.516;49.456;2022-09-09T14:55:37;1.40;;;0.80;;
67554;SDS011;54385;53.516;49.456;2022-09-09T14:58:04;2.22;;;0.90;;
67554;SDS011;54385;53.516;49.456;2022-09-09T15:00:31;1.98;;;1.10;;
67554;SDS011;54385;53.516;49.456;2022-09-09T15:02:58;2.08;;;1.17;;
67554;SDS011;54385;53.516;49.456;2022-09-09T15:05:24;1.77;;;1.10;;
67554;SDS011;54385;53.516;49.456;2022-09-09T15:10:17;2.30;;;1.27;;
67554;SDS011;54385;53.516;49.456;2022-09-09T15:12:43;4.45;;;1.00;;
67554;SDS011;54385;53.516;49.456;2022-09-09T15:15:10;3.58;;;0.88;;
67554;SDS011;54385;53.516;49.456;2022-09-09T15:17:38;1.30;;;0.95;;
67554;SDS011;54385;53.516;49.456;2022-09-09T15:20:05;2.92;;;1.10;;
67554;SDS011;54385;53.516;49.456;2022-09-09T15:22:32;2.15;;;1.15;;
67554;SDS011;54385;53.516;49.456;2022-09-09T15:24:59;4.60;;;1.02;;
67554;SDS011;54385;53.516;49.456;2022-09-09T15:27:25;3.97;;;1.20;;
67554;SDS011;54385;53.516;49.456;2022-09-09T15:29:56;1.10;;;0.82;;
67554;SDS011;54385;53.516;49.456;2022-09-09T15:32:23;2.15;;;1.00;;
67554;SDS011;54385;53.516;49.456;2022-09-09T15:37:16;2.50;;;1.00;;
67554;SDS011;54385;53.516;49.456;2022-09-09T15:39:43;0.77;;;0.60;;
67554;SDS011;54385;53.516;49.456;2022-09-09T15:42:10;3.72;;;0.70;;
67554;SDS011;54385;53.516;49.456;2022-09-09T15:44:42;0.88;;;0.50;;
67554;SDS011;54385;53.516;49.456;2022-09-09T15:47:11;1.05;;;0.73;;
67554;SDS011;54385;53.516;49.456;2022-09-09T15:49:40;1.10;;;0.70;;
67554;SDS011;54385;53.516;49.456;2022-09-09T15:52:08;2.92;;;0.90;;
67554;SDS011;54385;53.516;49.456;2022-09-09T15:54:36;2.08;;;0.80;;
67554;SDS011;54385;53.516;49.456;2022-09-09T15:57:07;1.20;;;0.63;;
67554;SDS011;54385;53.516;49.456;2022-09-09T15:59:37;2.58;;;0.75;;
67554;SDS011;54385;53.516;49.456;2022-09-09T16:04:30;2.28;;;0.70;;
67554;SDS011;54385;53.516;49.456;2022-09-09T16:09:27;1.98;;;1.08;;
67554;SDS011;54385;53.516;49.456;2022-09-09T16:11:55;1.20;;;0.80;;
67554;SDS011;54385;53.516;49.456;2022-09-09T16:14:26;5.35;;;1.10;;
67554;SDS011;54385;53.516;49.456;2022-09-09T16:16:53;2.55;;;0.90;;
67554;SDS011;54385;53.516;49.456;2022-09-09T16:19:19;2.00;;;0.77;;
67554;SDS011;54385;53.516;49.456;2022-09-09T16:21:46;1.00;;;0.70;;
67554;SDS011;54385;53.516;49.456;2022-09-09T16:24:16;1.13;;;0.70;;
67554;SDS011;54385;53.516;49.456;2022-09-09T16:26:46;1.17;;;0.68;;
67554;SDS011;54385;53.516;49.456;2022-09-09T16:29:15;3.40;;;0.63;;
67554;SDS011;54385;53.516;49.456;2022-09-09T16:31:48;3.72;;;0.90;;
67554;SDS011;54385;53.516;49.456;2022-09-09T16:34:16;0.82;;;0.50;;
67554;SDS011;54385;53.516;49.456;2022-09-09T16:36:43;0.93;;;0.50;;
67554;SDS011;54385;53.516;49.456;2022-09-09T16:39:11;1.83;;;0.57;;
67554;SDS011;54385;53.516;49.456;2022-09-09T16:41:40;1.88;;;0.70;;
67554;SDS011;54385;53.516;49.456;2022-09-09T16:44:09;0.90;;;0.57;;
67554;SDS011;54385;53.516;49.456;2022-09-09T16:46:41;2.30;;;0.90;;
67554;SDS011;54385;53.516;49.456;2022-09-09T16:49:12;0.60;;;0.50;;
67554;SDS011;54385;53.516;49.456;2022-09-09T16:51:41;1.55;;;0.60;;
67554;SDS011;54385;53.516;49.456;2022-09-09T16:54:14;1.98;;;0.60;;
67554;SDS011;54385;53.516;49.456;2022-09-09T16:56:43;1.73;;;0.73;;
67554;SDS011;54385;53.516;49.456;2022-09-09T16:59:13;1.48;;;0.60;;
67554;SDS011;54385;53.516;49.456;2022-09-09T17:01:41;2.50;;;0.68;;
67554;SDS011;54385;53.516;49.456;2022-09-09T17:04:12;3.35;;;1.73;;
67554;SDS011;54385;53.516;49.456;2022-09-09T17:06:50;3.25;;;0.80;;
67554;SDS011;54385;53.516;49.456;2022-09-09T17:09:18;1.85;;;0.80;;
67554;SDS011;54385;53.516;49.456;2022-09-09T17:11:46;0.90;;;0.60;;
67554;SDS011;54385;53.516;49.456;2022-09-09T17:14:14;0.90;;;0.60;;
67554;SDS011;54385;53.516;49.456;2022-09-09T17:16:43;1.45;;;0.65;;
67554;SDS011;54385;53.516;49.456;2022-09-09T17:19:10;4.43;;;1.08;;
67554;SDS011;54385;53.516;49.456;2022-09-09T17:21:37;1.50;;;0.60;;
67554;SDS011;54385;53.516;49.456;2022-09-09T17:24:04;1.13;;;0.60;;
67554;SDS011;54385;53.516;49.456;2022-09-09T17:26:31;2.70;;;0.93;;
67554;SDS011;54385;53.516;49.456;2022-09-09T17:29:01;1.38;;;0.60;;
67554;SDS011;54385;53.516;49.456;2022-09-09T17:31:28;0.38;;;0.38;;
67554;SDS011;54385;53.516;49.456;2022-09-09T17:33:55;1.08;;;0.60;;
67554;SDS011;54385;53.516;49.456;2022-09-09T17:36:24;0.93;;;0.60;;
67554;SDS011;54385;53.516;49.456;2022-09-09T17:38:53;3.22;;;1.10;;
67554;SDS011;54385;53.516;49.456;2022-09-09T17:41:21;1.38;;;0.80;;
67554;SDS011;54385;53.516;49.456;2022-09-09T17:43:49;2.70;;;1.40;;
67554;SDS011;54385;53.516;49.456;2022-09-09T17:46:18;5.55;;;1.70;;
67554;SDS011;54385;53.516;49.456;2022-09-09T17:48:50;6.45;;;2.63;;
67554;SDS011;54385;53.516;49.456;2022-09-09T17:51:20;2.65;;;1.20;;
67554;SDS011;54385;53.516;49.456;2022-09-09T17:53:53;2.38;;;0.93;;
67554;SDS011;54385;53.516;49.456;2022-09-09T17:56:21;3.53;;;0.65;;
67554;SDS011;54385;53.516;49.456;2022-09-09T17:58:50;2.42;;;1.20;;
67554;SDS011;54385;53.516;49.456;2022-09-09T18:01:24;3.03;;;1.40;;
67554;SDS011;54385;53.516;49.456;2022-09-09T18:03:56;4.95;;;1.25;;
67554;SDS011;54385;53.516;49.456;2022-09-09T18:06:27;1.67;;;0.70;;
67554;SDS011;54385;53.516;49.456;2022-09-09T18:08:57;0.60;;;0.60;;
67554;SDS011;54385;53.516;49.456;2022-09-09T18:11:26;0.43;;;0.40;;